createdAt,value
2023-03-01T00:02:00.918Z,4.50
2023-03-01T00:04:28.506Z,5.70
2023-03-01T00:06:55.013Z,5.07
2023-03-01T00:09:21.522Z,4.80
2023-03-01T00:11:48.058Z,5.53
2023-03-01T00:14:14.600Z,5.30
2023-03-01T00:16:41.115Z,5.70
2023-03-01T00:19:07.677Z,6.37
2023-03-01T00:21:36.053Z,6.10
2023-03-01T00:24:02.521Z,5.50
2023-03-01T00:26:29.412Z,5.73
2023-03-01T00:28:59.245Z,6.17
2023-03-01T00:31:25.766Z,5.63
2023-03-01T00:33:52.277Z,5.90
2023-03-01T00:36:18.775Z,5.87
2023-03-01T00:38:45.242Z,7.30
2023-03-01T00:41:11.725Z,6.37
2023-03-01T00:43:38.254Z,5.80
2023-03-01T00:46:05.128Z,5.40
2023-03-01T00:48:31.698Z,6.30
2023-03-01T00:50:58.222Z,5.60
2023-03-01T00:53:24.683Z,6.37
2023-03-01T00:55:51.152Z,5.73
2023-03-01T00:58:17.657Z,4.93
2023-03-01T01:00:44.142Z,5.10
2023-03-01T01:03:10.632Z,5.23
2023-03-01T01:05:37.233Z,5.37
2023-03-01T01:08:03.781Z,5.40
2023-03-01T01:10:30.278Z,6.00
2023-03-01T01:12:56.797Z,5.70
2023-03-01T01:15:23.295Z,5.30
2023-03-01T01:17:49.803Z,6.27
2023-03-01T01:20:16.289Z,6.50
2023-03-01T01:22:42.804Z,6.37
2023-03-01T01:25:09.418Z,5.60
2023-03-01T01:27:35.978Z,6.63
2023-03-01T01:30:02.481Z,5.50
2023-03-01T01:32:29.134Z,5.90
2023-03-01T01:34:55.672Z,5.50
2023-03-01T01:37:22.194Z,5.67
2023-03-01T01:39:48.664Z,6.03
2023-03-01T01:44:49.144Z,6.43
2023-03-01T01:47:15.684Z,6.20
2023-03-01T01:49:42.156Z,6.80
2023-03-01T01:52:09.022Z,6.90
2023-03-01T01:54:35.538Z,6.17
2023-03-01T01:57:02.064Z,5.53
2023-03-01T01:59:28.580Z,5.27
2023-03-01T02:01:55.067Z,5.80
2023-03-01T02:04:21.555Z,7.20
2023-03-01T02:06:48.126Z,6.10
2023-03-01T02:09:14.606Z,7.57
2023-03-01T02:11:41.103Z,6.00
2023-03-01T02:14:07.596Z,6.83
2023-03-01T02:16:34.641Z,7.57
2023-03-01T02:19:01.427Z,6.27
2023-03-01T02:21:27.949Z,6.53
2023-03-01T02:23:55.355Z,5.73
2023-03-01T02:26:21.814Z,6.70
2023-03-01T02:28:48.737Z,5.43
2023-03-01T02:31:35.210Z,6.07
2023-03-01T02:34:01.782Z,6.30
2023-03-01T02:36:28.489Z,6.73
2023-03-01T02:38:55.218Z,6.23
2023-03-01T02:41:21.722Z,7.07
2023-03-01T02:43:48.254Z,7.10
2023-03-01T02:46:14.978Z,6.60
2023-03-01T02:48:41.557Z,6.80
2023-03-01T02:51:08.039Z,6.37
2023-03-01T02:53:34.546Z,5.80
2023-03-01T02:56:01.146Z,7.13
2023-03-01T02:58:27.720Z,6.10
2023-03-01T03:00:54.276Z,6.40
2023-03-01T03:03:20.801Z,5.77
2023-03-01T03:05:47.342Z,6.63
2023-03-01T03:08:13.968Z,6.40
2023-03-01T03:10:40.519Z,5.57
2023-03-01T03:13:07.095Z,6.80
2023-03-01T03:15:36.883Z,5.73
2023-03-01T03:18:03.371Z,7.00
2023-03-01T03:20:29.853Z,6.70
2023-03-01T03:22:56.368Z,6.67
2023-03-01T03:25:22.936Z,6.13
2023-03-01T03:27:49.517Z,7.00
2023-03-01T03:30:16.024Z,6.20
2023-03-01T03:32:42.550Z,8.17
2023-03-01T03:35:10.337Z,5.67
2023-03-01T03:37:55.687Z,5.90
2023-03-01T03:40:22.215Z,7.53
2023-03-01T03:42:49.188Z,6.53
2023-03-01T03:45:15.728Z,7.07
2023-03-01T03:47:42.209Z,6.60
2023-03-01T03:50:08.681Z,5.13
2023-03-01T03:52:35.187Z,6.87
2023-03-01T03:55:01.702Z,6.67
2023-03-01T03:57:28.201Z,6.73
2023-03-01T03:59:54.715Z,5.67
2023-03-01T04:02:23.026Z,6.57
2023-03-01T04:04:52.678Z,6.30
2023-03-01T04:07:19.173Z,6.40
2023-03-01T04:09:45.702Z,5.70
2023-03-01T04:12:12.179Z,5.20
2023-03-01T04:14:38.668Z,7.50
2023-03-01T04:17:06.151Z,7.03
2023-03-01T04:19:36.967Z,6.67
2023-03-01T04:22:08.334Z,7.50
2023-03-01T04:24:35.015Z,7.10
2023-03-01T04:27:01.508Z,6.10
2023-03-01T04:29:28.012Z,6.30
2023-03-01T04:31:54.577Z,7.93
2023-03-01T04:34:21.141Z,7.33
2023-03-01T04:36:47.728Z,7.30
2023-03-01T04:39:14.307Z,6.80
2023-03-01T04:41:40.811Z,7.73
2023-03-01T04:44:07.317Z,6.80
2023-03-01T04:46:34.151Z,7.00
2023-03-01T04:49:00.782Z,6.20
2023-03-01T04:51:27.288Z,7.23
2023-03-01T04:53:53.761Z,7.30
2023-03-01T04:56:20.239Z,8.80
2023-03-01T04:58:46.780Z,8.00
2023-03-01T05:01:16.395Z,6.90
2023-03-01T05:03:43.690Z,8.23
2023-03-01T05:06:10.252Z,8.10
2023-03-01T05:08:39.811Z,6.40
2023-03-01T05:11:06.626Z,6.77
2023-03-01T05:13:33.169Z,7.10
2023-03-01T05:15:59.680Z,7.57
2023-03-01T05:18:26.885Z,10.73
2023-03-01T05:20:53.404Z,9.90
2023-03-01T05:23:19.932Z,12.73
2023-03-01T05:25:46.389Z,9.83
2023-03-01T05:28:12.969Z,9.00
2023-03-01T05:30:42.489Z,7.80
2023-03-01T05:33:14.102Z,7.30
2023-03-01T05:35:41.038Z,8.10
2023-03-01T05:38:07.636Z,8.47
2023-03-01T05:40:34.144Z,8.20
2023-03-01T05:43:00.635Z,8.13
2023-03-01T05:45:27.207Z,8.23
2023-03-01T05:47:53.758Z,7.03
2023-03-01T05:50:20.219Z,7.10
2023-03-01T05:52:46.750Z,8.23
2023-03-01T05:55:13.231Z,6.67
2023-03-01T05:57:39.814Z,7.27
2023-03-01T06:00:07.262Z,7.93
2023-03-01T06:02:33.775Z,8.30
2023-03-01T06:05:00.510Z,7.57
2023-03-01T06:07:27.085Z,7.50
2023-03-01T06:09:53.619Z,7.47
2023-03-01T06:12:20.409Z,6.93
2023-03-01T06:14:47.540Z,9.13
2023-03-01T06:17:14.059Z,7.57
2023-03-01T06:19:40.554Z,9.17
2023-03-01T06:22:07.032Z,8.77
2023-03-01T06:24:34.019Z,7.67
2023-03-01T06:27:00.544Z,7.63
2023-03-01T06:29:27.143Z,7.33
2023-03-01T06:31:53.678Z,8.07
2023-03-01T06:34:20.395Z,8.30
2023-03-01T06:36:46.919Z,7.60
2023-03-01T06:39:13.426Z,7.30
2023-03-01T06:41:39.913Z,8.13
2023-03-01T06:44:06.458Z,7.97
2023-03-01T06:46:33.344Z,8.37
2023-03-01T06:49:00.130Z,7.73
2023-03-01T06:51:26.620Z,9.00
2023-03-01T06:53:53.117Z,8.00
2023-03-01T06:56:19.594Z,9.00
2023-03-01T06:58:46.114Z,7.63
2023-03-01T07:01:12.655Z,7.50
2023-03-01T07:03:39.160Z,8.50
2023-03-01T07:06:05.668Z,7.37
2023-03-01T07:08:32.190Z,9.60
2023-03-01T07:10:58.754Z,9.73
2023-03-01T07:13:25.392Z,10.47
2023-03-01T07:15:51.979Z,9.67
2023-03-01T07:18:18.494Z,8.50
2023-03-01T07:20:44.974Z,8.97
2023-03-01T07:23:11.472Z,9.77
2023-03-01T07:25:37.987Z,8.30
2023-03-01T07:28:04.533Z,10.00
2023-03-01T07:30:31.426Z,10.17
2023-03-01T07:32:58.063Z,7.60
2023-03-01T07:35:24.706Z,8.73
2023-03-01T07:37:51.280Z,7.60
2023-03-01T07:40:17.820Z,7.43
2023-03-01T07:42:44.375Z,7.17
2023-03-01T07:45:10.869Z,9.03
2023-03-01T07:47:37.362Z,7.20
2023-03-01T07:50:04.698Z,7.43
2023-03-01T07:52:31.717Z,6.40
2023-03-01T07:54:58.274Z,6.60
2023-03-01T07:57:24.736Z,6.77
2023-03-01T07:59:51.226Z,7.27
2023-03-01T08:02:17.750Z,8.10
2023-03-01T08:04:44.302Z,7.03
2023-03-01T08:07:10.771Z,8.10
2023-03-01T08:09:40.447Z,6.57
2023-03-01T08:12:06.983Z,6.00
2023-03-01T08:14:33.567Z,6.23
2023-03-01T08:17:00.224Z,6.47
2023-03-01T08:19:28.915Z,6.80
2023-03-01T08:21:55.454Z,6.50
2023-03-01T08:24:22.424Z,6.60
2023-03-01T08:26:49.164Z,6.63
2023-03-01T08:29:15.638Z,7.23
2023-03-01T08:31:42.318Z,5.90
2023-03-01T08:34:08.797Z,6.60
2023-03-01T08:36:35.321Z,6.47
2023-03-01T08:39:01.890Z,7.60
2023-03-01T08:41:28.389Z,5.87
2023-03-01T08:43:59.385Z,5.90
2023-03-01T08:46:25.987Z,5.10
2023-03-01T08:48:52.516Z,6.00
2023-03-01T08:51:19.027Z,6.37
2023-03-01T08:53:45.576Z,5.80
2023-03-01T08:56:12.124Z,5.90
2023-03-01T08:58:38.690Z,5.40
2023-03-01T09:01:05.191Z,5.90
2023-03-01T09:03:31.679Z,5.23
2023-03-01T09:05:58.245Z,5.40
2023-03-01T09:08:24.755Z,5.37
2023-03-01T09:10:51.389Z,5.30
2023-03-01T09:13:17.886Z,6.50
2023-03-01T09:15:44.406Z,5.63
2023-03-01T09:18:10.891Z,5.77
2023-03-01T09:20:37.424Z,5.63
2023-03-01T09:23:03.974Z,4.50
2023-03-01T09:25:30.539Z,5.60
2023-03-01T09:27:57.036Z,5.13
2023-03-01T09:30:23.591Z,4.73
2023-03-01T09:32:50.121Z,5.57
2023-03-01T09:35:16.633Z,5.40
2023-03-01T09:37:45.476Z,5.17
2023-03-01T09:40:11.972Z,5.00
2023-03-01T09:42:38.448Z,5.20
2023-03-01T09:45:05.047Z,5.03
2023-03-01T09:47:31.594Z,6.10
2023-03-01T09:49:58.107Z,5.13
2023-03-01T09:52:24.622Z,5.10
2023-03-01T09:54:51.094Z,4.83
2023-03-01T09:57:17.644Z,5.80
2023-03-01T09:59:44.195Z,5.60
2023-03-01T10:02:10.698Z,5.60
2023-03-01T10:04:37.753Z,5.17
2023-03-01T10:07:04.335Z,5.60
2023-03-01T10:09:30.853Z,5.00
2023-03-01T10:11:57.330Z,5.73
2023-03-01T10:14:23.823Z,6.50
2023-03-01T10:16:50.369Z,6.17
2023-03-01T10:19:16.853Z,7.03
2023-03-01T10:21:43.366Z,6.20
2023-03-01T10:24:10.332Z,6.83
2023-03-01T10:29:11.525Z,6.63
2023-03-01T10:31:55.581Z,6.20
2023-03-01T10:34:22.124Z,7.10
2023-03-01T10:36:48.637Z,6.13
2023-03-01T10:39:15.181Z,5.67
2023-03-01T10:41:41.674Z,6.00
2023-03-01T10:44:08.187Z,6.20
2023-03-01T10:46:34.819Z,5.03
2023-03-01T10:49:01.337Z,5.17
2023-03-01T10:51:27.852Z,5.50
2023-03-01T10:53:54.352Z,5.60
2023-03-01T10:56:20.859Z,5.17
2023-03-01T10:58:47.411Z,5.77
2023-03-01T11:01:13.970Z,5.17
2023-03-01T11:03:40.542Z,6.40
2023-03-01T11:06:07.092Z,6.27
2023-03-01T11:08:35.032Z,5.90
2023-03-01T11:11:01.740Z,5.73
2023-03-01T11:13:28.203Z,4.13
2023-03-01T11:15:54.776Z,5.77
2023-03-01T11:18:21.438Z,5.07
2023-03-01T11:20:47.912Z,5.30
2023-03-01T11:23:14.504Z,5.63
2023-03-01T11:25:40.992Z,6.47
2023-03-01T11:28:07.639Z,4.80
2023-03-01T11:30:34.162Z,6.50
2023-03-01T11:33:00.819Z,6.27
2023-03-01T11:35:27.919Z,6.13
2023-03-01T11:37:54.418Z,5.37
2023-03-01T11:40:21.128Z,5.63
2023-03-01T11:42:47.703Z,6.60
2023-03-01T11:45:14.282Z,7.10
2023-03-01T11:47:40.887Z,5.43
2023-03-01T11:50:07.467Z,5.30
2023-03-01T11:52:34.151Z,5.70
2023-03-01T11:55:00.636Z,5.90
2023-03-01T11:57:41.161Z,5.20
2023-03-01T12:00:09.566Z,6.30
2023-03-01T12:02:36.111Z,5.87
2023-03-01T12:05:02.706Z,6.13
2023-03-01T12:07:29.279Z,5.90
2023-03-01T12:09:55.781Z,6.10
2023-03-01T12:12:22.495Z,6.23
2023-03-01T12:14:50.305Z,5.50
2023-03-01T12:17:17.056Z,5.60
2023-03-01T12:19:43.714Z,5.90
2023-03-01T12:22:10.214Z,6.00
2023-03-01T12:24:36.810Z,5.40
2023-03-01T12:27:03.294Z,6.27
2023-03-01T12:29:29.873Z,6.90
2023-03-01T12:31:56.589Z,5.93
2023-03-01T12:34:23.171Z,5.37
2023-03-01T12:36:49.730Z,6.13
2023-03-01T12:39:16.207Z,6.17
2023-03-01T12:41:43.465Z,7.30
2023-03-01T12:44:09.982Z,6.27
2023-03-01T12:46:36.518Z,5.23
2023-03-01T12:49:03.039Z,4.90
2023-03-01T12:51:29.514Z,6.10
2023-03-01T12:53:56.118Z,5.37
2023-03-01T12:56:22.591Z,6.30
2023-03-01T12:58:50.599Z,5.00
2023-03-01T13:01:18.492Z,5.83
2023-03-01T13:03:45.089Z,5.17
2023-03-01T13:06:11.840Z,5.00
2023-03-01T13:08:39.022Z,4.70
2023-03-01T13:11:05.510Z,5.03
2023-03-01T13:13:32.085Z,5.20
2023-03-01T13:15:58.566Z,5.37
2023-03-01T13:18:26.375Z,5.30
2023-03-01T13:20:52.949Z,5.37
2023-03-01T13:23:19.456Z,5.37
2023-03-01T13:25:45.967Z,5.03
2023-03-01T13:28:12.481Z,4.87
2023-03-01T13:30:38.976Z,6.50
2023-03-01T13:33:05.532Z,6.43
2023-03-01T13:35:32.075Z,5.20
2023-03-01T13:37:58.606Z,6.67
2023-03-01T13:40:25.171Z,5.57
2023-03-01T13:43:04.244Z,5.93
2023-03-01T13:45:31.554Z,5.57
2023-03-01T13:47:59.109Z,5.17
2023-03-01T13:50:25.676Z,6.70
2023-03-01T13:52:52.364Z,6.00
2023-03-01T13:55:18.902Z,5.50
2023-03-01T13:57:45.390Z,6.00
2023-03-01T14:00:11.905Z,5.10
2023-03-01T14:02:38.432Z,6.20
2023-03-01T14:05:04.947Z,5.77
2023-03-01T14:07:31.531Z,6.10
2023-03-01T14:09:58.057Z,6.03
2023-03-01T14:12:25.460Z,5.90
2023-03-01T14:14:51.982Z,6.40
2023-03-01T14:17:18.437Z,5.50
2023-03-01T14:19:45.825Z,5.57
2023-03-01T14:22:12.307Z,6.00
2023-03-01T14:24:38.812Z,5.40
2023-03-01T14:27:06.396Z,5.10
2023-03-01T14:29:32.907Z,6.23
2023-03-01T14:31:59.497Z,5.03
2023-03-01T14:34:26.038Z,6.33
2023-03-01T14:36:52.604Z,4.80
2023-03-01T14:39:19.259Z,4.70
2023-03-01T14:41:45.920Z,6.20
2023-03-01T14:44:12.395Z,5.50
2023-03-01T14:46:38.991Z,5.47
2023-03-01T14:49:06.010Z,4.47
2023-03-01T14:51:32.535Z,5.73
2023-03-01T14:53:59.089Z,5.67
2023-03-01T14:56:25.615Z,5.07
2023-03-01T14:58:52.118Z,5.87
2023-03-01T15:01:18.672Z,5.60
2023-03-01T15:03:45.227Z,4.40
2023-03-01T15:06:12.949Z,5.10
2023-03-01T15:08:39.443Z,5.40
2023-03-01T15:11:08.726Z,5.50
2023-03-01T15:13:35.613Z,4.87
2023-03-01T15:16:02.159Z,5.50
2023-03-01T15:18:28.668Z,5.13
2023-03-01T15:20:55.176Z,5.90
2023-03-01T15:23:21.973Z,4.40
2023-03-01T15:25:55.731Z,4.73
2023-03-01T15:28:22.586Z,4.80
2023-03-01T15:30:49.093Z,4.80
2023-03-01T15:33:20.288Z,4.13
2023-03-01T15:35:48.894Z,5.57
2023-03-01T15:38:24.634Z,4.23
2023-03-01T15:40:52.341Z,4.20
2023-03-01T15:43:18.809Z,5.07
2023-03-01T15:45:45.355Z,5.10
2023-03-01T15:48:14.390Z,4.50
2023-03-01T15:50:40.977Z,4.77
2023-03-01T15:53:07.712Z,4.90
2023-03-01T15:55:34.353Z,4.13
2023-03-01T15:58:03.945Z,4.80
2023-03-01T16:00:30.431Z,4.13
2023-03-01T16:02:57.055Z,5.67
2023-03-01T16:05:23.963Z,5.33
2023-03-01T16:07:50.464Z,4.77
2023-03-01T16:10:16.966Z,5.10
2023-03-01T16:12:43.477Z,5.87
2023-03-01T16:15:09.961Z,4.57
2023-03-01T16:17:36.507Z,4.67
2023-03-01T16:20:02.985Z,4.73
2023-03-01T16:22:29.489Z,4.70
2023-03-01T16:24:55.983Z,4.07
2023-03-01T16:30:03.844Z,5.70
2023-03-01T16:32:30.415Z,5.00
2023-03-01T16:34:57.079Z,4.43
2023-03-01T16:37:23.560Z,4.33
2023-03-01T16:39:52.132Z,5.00
2023-03-01T16:42:18.727Z,5.07
2023-03-01T16:44:45.445Z,5.40
2023-03-01T16:47:12.037Z,4.47
2023-03-01T16:49:38.510Z,5.47
2023-03-01T16:52:05.044Z,5.33
2023-03-01T16:54:31.556Z,4.00
2023-03-01T16:56:58.807Z,4.70
2023-03-01T16:59:25.467Z,4.60
2023-03-01T17:01:51.943Z,4.73
2023-03-01T17:04:19.442Z,4.97
2023-03-01T17:06:47.766Z,4.57
2023-03-01T17:09:14.458Z,5.03
2023-03-01T17:11:40.972Z,4.80
2023-03-01T17:14:07.712Z,5.57
2023-03-01T17:16:34.277Z,5.47
2023-03-01T17:19:00.797Z,5.40
2023-03-01T17:21:27.350Z,4.90
2023-03-01T17:23:53.816Z,5.80
2023-03-01T17:26:20.373Z,5.33
2023-03-01T17:28:51.606Z,6.03
2023-03-01T17:31:18.104Z,4.87
2023-03-01T17:33:44.696Z,4.77
2023-03-01T17:36:11.224Z,5.00
2023-03-01T17:38:37.729Z,5.10
2023-03-01T17:41:04.196Z,4.50
2023-03-01T17:43:33.069Z,4.37
2023-03-01T17:45:59.698Z,4.60
2023-03-01T17:48:26.223Z,5.33
2023-03-01T17:50:52.766Z,4.83
2023-03-01T17:53:19.254Z,5.90
2023-03-01T17:55:46.032Z,5.27
2023-03-01T17:58:12.552Z,5.40
2023-03-01T18:00:39.048Z,5.30
2023-03-01T18:03:05.518Z,6.67
2023-03-01T18:05:31.998Z,5.50
2023-03-01T18:07:58.517Z,6.60
2023-03-01T18:10:25.008Z,6.10
2023-03-01T18:12:51.513Z,5.80
2023-03-01T18:15:20.125Z,6.93
2023-03-01T18:17:47.745Z,8.70
2023-03-01T18:20:15.353Z,8.57
2023-03-01T18:22:42.066Z,9.73
2023-03-01T18:25:08.645Z,7.20
2023-03-01T18:27:36.844Z,5.60
2023-03-01T18:30:03.364Z,6.70
2023-03-01T18:32:29.962Z,6.77
2023-03-01T18:34:56.542Z,6.03
2023-03-01T18:37:23.015Z,5.17
2023-03-01T18:39:49.527Z,4.97
2023-03-01T18:42:16.365Z,5.73
2023-03-01T18:44:42.847Z,5.00
2023-03-01T18:47:09.410Z,14.10
2023-03-01T18:49:35.892Z,15.03
2023-03-01T18:52:02.378Z,14.17
2023-03-01T18:54:28.970Z,10.53
2023-03-01T18:56:55.483Z,10.80
2023-03-01T18:59:22.057Z,7.00
2023-03-01T19:01:48.820Z,7.40
2023-03-01T19:04:15.430Z,6.30
2023-03-01T19:06:41.924Z,6.80
2023-03-01T19:09:08.554Z,6.03
2023-03-01T19:11:35.430Z,5.40
2023-03-01T19:14:01.955Z,5.40
2023-03-01T19:16:28.690Z,7.97
2023-03-01T19:18:55.348Z,6.70
2023-03-01T19:21:21.849Z,6.10
2023-03-01T19:23:51.317Z,6.10
2023-03-01T19:26:17.850Z,5.60
2023-03-01T19:28:44.414Z,5.60
2023-03-01T19:31:11.009Z,6.00
2023-03-01T19:33:37.601Z,6.00
2023-03-01T19:36:04.191Z,6.47
2023-03-01T19:38:30.725Z,5.60
2023-03-01T19:40:57.216Z,6.87
2023-03-01T19:43:23.853Z,6.90
2023-03-01T19:45:50.326Z,6.13
2023-03-01T19:48:17.097Z,5.70
2023-03-01T19:50:43.593Z,6.53
2023-03-01T19:53:10.165Z,5.70
2023-03-01T19:55:36.718Z,5.20
2023-03-01T19:58:03.189Z,5.80
2023-03-01T20:00:29.717Z,5.87
2023-03-01T20:02:56.222Z,6.07
2023-03-01T20:05:22.781Z,5.13
2023-03-01T20:07:50.908Z,6.33
2023-03-01T20:10:17.398Z,5.70
2023-03-01T20:12:43.956Z,5.70
2023-03-01T20:15:10.574Z,5.43
2023-03-01T20:17:37.094Z,5.80
2023-03-01T20:20:03.602Z,6.67
2023-03-01T20:22:30.695Z,6.30
2023-03-01T20:24:57.284Z,5.53
2023-03-01T20:27:23.760Z,6.23
2023-03-01T20:29:50.228Z,5.57
2023-03-01T20:32:16.718Z,6.37
2023-03-01T20:34:43.241Z,5.33
2023-03-01T20:37:09.853Z,5.70
2023-03-01T20:39:36.517Z,5.97
2023-03-01T20:42:03.189Z,4.80
2023-03-01T20:44:29.657Z,5.47
2023-03-01T20:46:56.133Z,5.87
2023-03-01T20:49:22.663Z,6.37
2023-03-01T20:51:49.160Z,5.73
2023-03-01T20:54:15.776Z,5.47
2023-03-01T20:56:42.269Z,6.30
2023-03-01T20:59:09.659Z,5.27
2023-03-01T21:01:36.282Z,5.17
2023-03-01T21:04:02.859Z,4.63
2023-03-01T21:06:29.502Z,5.50
2023-03-01T21:08:56.320Z,5.67
2023-03-01T21:11:25.414Z,5.47
2023-03-01T21:13:52.310Z,5.40
2023-03-01T21:16:37.594Z,5.63
2023-03-01T21:19:24.551Z,5.70
2023-03-01T21:22:10.971Z,5.40
2023-03-01T21:24:37.621Z,5.83
2023-03-01T21:27:06.503Z,6.53
2023-03-01T21:29:33.051Z,5.57
2023-03-01T21:31:59.628Z,5.40
2023-03-01T21:34:26.209Z,5.50
2023-03-01T21:36:52.733Z,7.87
2023-03-01T21:39:19.374Z,5.10
2023-03-01T21:41:45.872Z,5.27
2023-03-01T21:44:12.362Z,5.50
2023-03-01T21:46:38.889Z,5.50
2023-03-01T21:49:05.621Z,5.20
2023-03-01T21:51:32.206Z,6.07
2023-03-01T21:53:58.686Z,4.93
2023-03-01T21:56:25.216Z,6.60
2023-03-01T21:58:51.737Z,6.17
2023-03-01T22:01:18.374Z,5.87
2023-03-01T22:03:47.975Z,5.43
2023-03-01T22:06:19.178Z,7.07
2023-03-01T22:08:45.914Z,5.90
2023-03-01T22:11:12.607Z,6.73
2023-03-01T22:13:39.126Z,5.77
2023-03-01T22:16:05.814Z,6.20
2023-03-01T22:18:32.346Z,5.20
2023-03-01T22:20:58.833Z,7.20
2023-03-01T22:23:25.350Z,5.30
2023-03-01T22:25:51.861Z,4.77
2023-03-01T22:30:46.332Z,5.07
2023-03-01T22:33:12.809Z,6.10
2023-03-01T22:35:39.688Z,5.47
2023-03-01T22:38:06.248Z,5.80
2023-03-01T22:40:32.721Z,5.20
2023-03-01T22:42:59.199Z,5.27
2023-03-01T22:45:25.789Z,4.57
2023-03-01T22:47:52.292Z,4.67
2023-03-01T22:50:18.822Z,5.27
2023-03-01T22:52:45.313Z,5.60
2023-03-01T22:55:11.795Z,6.17
2023-03-01T22:57:38.300Z,6.30
2023-03-01T23:00:04.811Z,5.70
2023-03-01T23:02:31.373Z,5.40
2023-03-01T23:04:57.906Z,5.23
2023-03-01T23:07:24.400Z,5.13
2023-03-01T23:09:51.243Z,5.57
2023-03-01T23:12:17.805Z,4.17
2023-03-01T23:14:44.413Z,5.80
2023-03-01T23:17:12.614Z,4.67
2023-03-01T23:19:39.149Z,5.37
2023-03-01T23:22:05.675Z,5.73
2023-03-01T23:24:32.474Z,4.80
2023-03-01T23:26:59.145Z,5.03
2023-03-01T23:29:26.186Z,4.80
2023-03-01T23:31:52.895Z,5.80
2023-03-01T23:34:19.755Z,4.30
2023-03-01T23:36:46.839Z,5.70
2023-03-01T23:39:13.542Z,5.63
2023-03-01T23:41:40.143Z,5.30
2023-03-01T23:44:06.626Z,4.53
2023-03-01T23:46:33.670Z,4.90
2023-03-01T23:49:00.290Z,3.83
2023-03-01T23:51:26.910Z,4.80
2023-03-01T23:53:57.441Z,5.27
2023-03-01T23:56:27.247Z,5.43
2023-03-01T23:58:53.763Z,4.77
